sensor_id;sensor_type;location;lat;lon;timestamp;pressure;altitude;pressure_sealevel;temperature;humidity
29315;BME280;16320;53.954;9.506;2023-05-20T00:00:57;102583.81;;;9.48;100.00
29315;BME280;16320;53.954;9.506;2023-05-20T00:07:44;102590.09;;;9.41;100.00
29315;BME280;16320;53.954;9.506;2023-05-20T00:11:44;102581.44;;;9.32;100.00
29315;BME280;16320;53.954;9.506;2023-05-20T00:15:53;102577.97;;;9.32;100.00
29315;BME280;16320;53.954;9.506;2023-05-20T00:24:41;102575.56;;;9.21;100.00
29315;BME280;16320;53.954;9.506;2023-05-20T00:28:31;102574.78;;;9.13;100.00
29315;BME280;16320;53.954;9.506;2023-05-20T00:32:26;102576.53;;;9.12;100.00
29315;BME280;16320;53.954;9.506;2023-05-20T00:36:35;102580.94;;;9.12;100.00
29315;BME280;16320;53.954;9.506;2023-05-20T00:40:58;102578.34;;;9.10;100.00
29315;BME280;16320;53.954;9.506;2023-05-20T00:45:15;102584.44;;;9.11;100.00
29315;BME280;16320;53.954;9.506;2023-05-20T01:19:53;102558.81;;;8.71;100.00
29315;BME280;16320;53.954;9.506;2023-05-20T01:23:49;102553.66;;;8.68;100.00
29315;BME280;16320;53.954;9.506;2023-05-20T01:27:22;102553.56;;;8.71;100.00
29315;BME280;16320;53.954;9.506;2023-05-20T01:30:49;102561.41;;;8.74;100.00
29315;BME280;16320;53.954;9.506;2023-05-20T01:34:18;102566.69;;;8.71;100.00
29315;BME280;16320;53.954;9.506;2023-05-20T01:37:39;102571.91;;;8.72;100.00
29315;BME280;16320;53.954;9.506;2023-05-20T01:41:30;102567.63;;;8.67;100.00
29315;BME280;16320;53.954;9.506;2023-05-20T01:45:15;102565.00;;;8.67;100.00
29315;BME280;16320;53.954;9.506;2023-05-20T01:49:01;102560.63;;;8.66;100.00
29315;BME280;16320;53.954;9.506;2023-05-20T01:52:29;102558.09;;;8.61;100.00
29315;BME280;16320;53.954;9.506;2023-05-20T01:56:06;102557.22;;;8.60;100.00
29315;BME280;16320;53.954;9.506;2023-05-20T01:59:59;102552.00;;;8.59;100.00
29315;BME280;16320;53.954;9.506;2023-05-20T02:04:17;102548.53;;;8.58;100.00
29315;BME280;16320;53.954;9.506;2023-05-20T02:07:50;102550.19;;;8.63;100.00
29315;BME280;16320;53.954;9.506;2023-05-20T02:11:44;102548.56;;;8.55;100.00
29315;BME280;16320;53.954;9.506;2023-05-20T02:15:20;102547.78;;;8.50;100.00
29315;BME280;16320;53.954;9.506;2023-05-20T02:18:41;102548.53;;;8.58;100.00
29315;BME280;16320;53.954;9.506;2023-05-20T02:26:28;102543.34;;;8.55;100.00
29315;BME280;16320;53.954;9.506;2023-05-20T02:29:53;102551.28;;;8.49;100.00
29315;BME280;16320;53.954;9.506;2023-05-20T02:33:23;102538.22;;;8.46;100.00
29315;BME280;16320;53.954;9.506;2023-05-20T02:40:06;102543.56;;;8.37;100.00
29315;BME280;16320;53.954;9.506;2023-05-20T02:43:28;102537.41;;;8.39;100.00
29315;BME280;16320;53.954;9.506;2023-05-20T02:51:29;102536.50;;;8.42;100.00
29315;BME280;16320;53.954;9.506;2023-05-20T02:54:59;102540.03;;;8.38;100.00
29315;BME280;16320;53.954;9.506;2023-05-20T02:58:35;102542.59;;;8.46;100.00
29315;BME280;16320;53.954;9.506;2023-05-20T03:01:40;102547.84;;;8.46;100.00
29315;BME280;16320;53.954;9.506;2023-05-20T03:04:48;102541.75;;;8.45;100.00
29315;BME280;16320;53.954;9.506;2023-05-20T03:07:54;102536.50;;;8.42;100.00
29315;BME280;16320;53.954;9.506;2023-05-20T03:10:59;102539.16;;;8.40;100.00
29315;BME280;16320;53.954;9.506;2023-05-20T03:14:08;102540.84;;;8.41;100.00
29315;BME280;16320;53.954;9.506;2023-05-20T03:17:13;102547.06;;;8.36;100.00
29315;BME280;16320;53.954;9.506;2023-05-20T03:20:18;102542.69;;;8.36;100.00
29315;BME280;16320;53.954;9.506;2023-05-20T03:23:22;102554.06;;;8.34;100.00
29315;BME280;16320;53.954;9.506;2023-05-20T03:26:26;102554.94;;;8.34;100.00
29315;BME280;16320;53.954;9.506;2023-05-20T03:29:31;102546.19;;;8.37;100.00
29315;BME280;16320;53.954;9.506;2023-05-20T03:32:36;102557.50;;;8.39;100.00
29315;BME280;16320;53.954;9.506;2023-05-20T03:35:41;102553.16;;;8.35;100.00
29315;BME280;16320;53.954;9.506;2023-05-20T03:38:47;102552.31;;;8.34;100.00
29315;BME280;16320;53.954;9.506;2023-05-20T03:41:52;102555.78;;;8.35;100.00
29315;BME280;16320;53.954;9.506;2023-05-20T03:44:57;102560.16;;;8.34;100.00
29315;BME280;16320;53.954;9.506;2023-05-20T03:48:06;102555.78;;;8.36;100.00
29315;BME280;16320;53.954;9.506;2023-05-20T03:51:13;102558.34;;;8.41;100.00
29315;BME280;16320;53.954;9.506;2023-05-20T03:54:18;102556.63;;;8.38;100.00
29315;BME280;16320;53.954;9.506;2023-05-20T03:57:25;102554.84;;;8.40;100.00
29315;BME280;16320;53.954;9.506;2023-05-20T04:00:30;102552.25;;;8.39;100.00
29315;BME280;16320;53.954;9.506;2023-05-20T04:03:35;102544.38;;;8.42;100.00
29315;BME280;16320;53.954;9.506;2023-05-20T04:06:41;102539.16;;;8.40;100.00
29315;BME280;16320;53.954;9.506;2023-05-20T04:09:52;102545.25;;;8.41;100.00
29315;BME280;16320;53.954;9.506;2023-05-20T04:13:02;102541.75;;;8.45;100.00
29315;BME280;16320;53.954;9.506;2023-05-20T04:16:07;102531.25;;;8.45;100.00
29315;BME280;16320;53.954;9.506;2023-05-20T04:19:13;102543.38;;;8.52;100.00
29315;BME280;16320;53.954;9.506;2023-05-20T04:22:22;102537.31;;;8.50;100.00
29315;BME280;16320;53.954;9.506;2023-05-20T04:25:31;102548.56;;;8.55;100.00
29315;BME280;16320;53.954;9.506;2023-05-20T04:29:11;102546.75;;;8.60;100.00
29315;BME280;16320;53.954;9.506;2023-05-20T04:33:26;102542.28;;;8.67;100.00
29315;BME280;16320;53.954;9.506;2023-05-20T04:37:53;102528.31;;;8.68;100.00
29315;BME280;16320;53.954;9.506;2023-05-20T04:41:30;102534.28;;;8.76;100.00
29315;BME280;16320;53.954;9.506;2023-05-20T04:45:22;102541.25;;;8.79;100.00
29315;BME280;16320;53.954;9.506;2023-05-20T04:49:22;102538.53;;;8.84;100.00
29315;BME280;16320;53.954;9.506;2023-05-20T04:53:07;102532.34;;;8.89;100.00
29315;BME280;16320;53.954;9.506;2023-05-20T04:56:34;102540.09;;;8.97;100.00
29315;BME280;16320;53.954;9.506;2023-05-20T04:59:58;102530.38;;;9.04;100.00
29315;BME280;16320;53.954;9.506;2023-05-20T05:03:31;102537.19;;;9.14;100.00
29315;BME280;16320;53.954;9.506;2023-05-20T05:07:14;102537.84;;;9.27;100.00
29315;BME280;16320;53.954;9.506;2023-05-20T05:10:58;102529.00;;;9.32;100.00
29315;BME280;16320;53.954;9.506;2023-05-20T05:14:26;102526.22;;;9.42;100.00
29315;BME280;16320;53.954;9.506;2023-05-20T05:18:12;102528.63;;;9.54;100.00
29315;BME280;16320;53.954;9.506;2023-05-20T05:21:29;102530.19;;;9.64;100.00
29315;BME280;16320;53.954;9.506;2023-05-20T05:24:42;102528.25;;;9.74;100.00
29315;BME280;16320;53.954;9.506;2023-05-20T05:28:31;102530.63;;;9.88;100.00
29315;BME280;16320;53.954;9.506;2023-05-20T05:32:26;102524.06;;;10.09;100.00
29315;BME280;16320;53.954;9.506;2023-05-20T05:35:43;102522.84;;;10.25;100.00
29315;BME280;16320;53.954;9.506;2023-05-20T05:38:51;102518.09;;;10.43;100.00
29315;BME280;16320;53.954;9.506;2023-05-20T05:41:56;102518.78;;;10.53;100.00
29315;BME280;16320;53.954;9.506;2023-05-20T05:45:05;102512.41;;;10.63;100.00
29315;BME280;16320;53.954;9.506;2023-05-20T05:48:10;102511.19;;;10.76;100.00
29315;BME280;16320;53.954;9.506;2023-05-20T05:51:15;102522.31;;;10.88;100.00
29315;BME280;16320;53.954;9.506;2023-05-20T05:54:24;102516.94;;;10.94;100.00
29315;BME280;16320;53.954;9.506;2023-05-20T05:57:29;102514.94;;;11.04;100.00
29315;BME280;16320;53.954;9.506;2023-05-20T06:00:35;102508.41;;;11.18;100.00
29315;BME280;16320;53.954;9.506;2023-05-20T06:03:41;102497.66;;;11.28;100.00
29315;BME280;16320;53.954;9.506;2023-05-20T06:06:51;102507.03;;;11.38;100.00
29315;BME280;16320;53.954;9.506;2023-05-20T06:09:57;102501.56;;;11.46;100.00
29315;BME280;16320;53.954;9.506;2023-05-20T06:13:07;102503.88;;;11.57;100.00
29315;BME280;16320;53.954;9.506;2023-05-20T06:16:20;102501.91;;;11.65;100.00
29315;BME280;16320;53.954;9.506;2023-05-20T06:19:28;102505.06;;;11.78;100.00
29315;BME280;16320;53.954;9.506;2023-05-20T06:22:41;102505.78;;;11.84;100.00
29315;BME280;16320;53.954;9.506;2023-05-20T06:30:27;102506.06;;;12.05;100.00
29315;BME280;16320;53.954;9.506;2023-05-20T06:34:31;102496.97;;;12.15;100.00
29315;BME280;16320;53.954;9.506;2023-05-20T06:38:06;102485.34;;;12.22;100.00
29315;BME280;16320;53.954;9.506;2023-05-20T06:41:25;102475.34;;;12.34;100.00
29315;BME280;16320;53.954;9.506;2023-05-20T06:44:51;102469.69;;;12.46;100.00
29315;BME280;16320;53.954;9.506;2023-05-20T06:48:01;102458.72;;;12.60;100.00
29315;BME280;16320;53.954;9.506;2023-05-20T06:52:00;102453.38;;;12.61;100.00
29315;BME280;16320;53.954;9.506;2023-05-20T06:55:52;102465.16;;;12.78;100.00
29315;BME280;16320;53.954;9.506;2023-05-20T06:59:15;102456.00;;;12.88;100.00
29315;BME280;16320;53.954;9.506;2023-05-20T07:08:03;102448.28;;;13.09;100.00
29315;BME280;16320;53.954;9.506;2023-05-20T07:12:29;102459.28;;;13.22;100.00
29315;BME280;16320;53.954;9.506;2023-05-20T07:15:53;102443.28;;;13.26;100.00
29315;BME280;16320;53.954;9.506;2023-05-20T07:24:36;102429.50;;;13.43;100.00
29315;BME280;16320;53.954;9.506;2023-05-20T07:44:15;102423.19;;;13.95;100.00
29315;BME280;16320;53.954;9.506;2023-05-20T09:00:40;102342.97;;;15.60;100.00
29315;BME280;16320;53.954;9.506;2023-05-20T12:10:12;102198.16;;;16.31;100.00
29315;BME280;16320;53.954;9.506;2023-05-20T12:14:22;102191.31;;;16.26;100.00
29315;BME280;16320;53.954;9.506;2023-05-20T12:17:53;102209.06;;;16.24;100.00
29315;BME280;16320;53.954;9.506;2023-05-20T12:20:59;102222.31;;;16.42;100.00
29315;BME280;16320;53.954;9.506;2023-05-20T12:24:06;102202.16;;;16.55;100.00
29315;BME280;16320;53.954;9.506;2023-05-20T12:27:12;102209.13;;;16.40;100.00
29315;BME280;16320;53.954;9.506;2023-05-20T12:30:33;102197.31;;;16.30;100.00
29315;BME280;16320;53.954;9.506;2023-05-20T12:33:43;102191.16;;;16.29;100.00
29315;BME280;16320;53.954;9.506;2023-05-20T12:36:56;102194.72;;;16.28;100.00
29315;BME280;16320;53.954;9.506;2023-05-20T12:43:36;102193.66;;;16.15;100.00
29315;BME280;16320;53.954;9.506;2023-05-20T12:47:01;102198.19;;;15.96;100.00
29315;BME280;16320;53.954;9.506;2023-05-20T12:50:11;102204.81;;;15.87;100.00
29315;BME280;16320;53.954;9.506;2023-05-20T12:53:24;102194.50;;;15.81;100.00
29315;BME280;16320;53.954;9.506;2023-05-20T12:56:53;102199.91;;;15.79;100.00
29315;BME280;16320;53.954;9.506;2023-05-20T13:00:11;102188.38;;;15.80;100.00
29315;BME280;16320;53.954;9.506;2023-05-20T13:03:59;102198.97;;;15.80;100.00
29315;BME280;16320;53.954;9.506;2023-05-20T13:12:58;102187.25;;;16.02;100.00
29315;BME280;16320;53.954;9.506;2023-05-20T13:33:10;102146.59;;;16.03;100.00
29315;BME280;16320;53.954;9.506;2023-05-20T13:36:29;102157.66;;;15.93;100.00
29315;BME280;16320;53.954;9.506;2023-05-20T13:39:40;102152.50;;;15.90;100.00
29315;BME280;16320;53.954;9.506;2023-05-20T13:42:58;102155.34;;;15.87;100.00
29315;BME280;16320;53.954;9.506;2023-05-20T13:46:12;102150.28;;;15.83;100.00
29315;BME280;16320;53.954;9.506;2023-05-20T13:54:42;102155.66;;;15.81;100.00
29315;BME280;16320;53.954;9.506;2023-05-20T14:03:06;102136.22;;;15.81;100.00
29315;BME280;16320;53.954;9.506;2023-05-20T14:06:56;102130.69;;;15.85;100.00
29315;BME280;16320;53.954;9.506;2023-05-20T14:10:33;102127.81;;;15.90;100.00
29315;BME280;16320;53.954;9.506;2023-05-20T14:14:42;102117.50;;;16.01;100.00
29315;BME280;16320;53.954;9.506;2023-05-20T14:18:01;102126.16;;;16.05;100.00
29315;BME280;16320;53.954;9.506;2023-05-20T14:21:53;102118.81;;;16.10;100.00
29315;BME280;16320;53.954;9.506;2023-05-20T14:25:29;102116.50;;;16.04;100.00
29315;BME280;16320;53.954;9.506;2023-05-20T14:28:51;102105.75;;;16.07;100.00
29315;BME280;16320;53.954;9.506;2023-05-20T14:32:08;102109.31;;;16.06;100.00
29315;BME280;16320;53.954;9.506;2023-05-20T14:35:28;102107.44;;;16.08;100.00
29315;BME280;16320;53.954;9.506;2023-05-20T14:38:38;102100.25;;;16.10;100.00
29315;BME280;16320;53.954;9.506;2023-05-20T14:41:53;102114.69;;;16.04;100.00
29315;BME280;16320;53.954;9.506;2023-05-20T14:45:06;102110.09;;;16.08;100.00
29315;BME280;16320;53.954;9.506;2023-05-20T14:48:19;102105.22;;;16.16;100.00
29315;BME280;16320;53.954;9.506;2023-05-20T14:51:51;102098.56;;;16.09;100.00
29315;BME280;16320;53.954;9.506;2023-05-20T14:55:01;102103.72;;;15.95;100.00
29315;BME280;16320;53.954;9.506;2023-05-20T14:58:08;102084.78;;;16.02;100.00
29315;BME280;16320;53.954;9.506;2023-05-20T15:01:13;102088.44;;;16.00;100.00
29315;BME280;16320;53.954;9.506;2023-05-20T15:04:20;102080.50;;;16.00;100.00
29315;BME280;16320;53.954;9.506;2023-05-20T15:07:26;102079.72;;;15.98;100.00
29315;BME280;16320;53.954;9.506;2023-05-20T15:10:39;102069.28;;;15.95;100.00
29315;BME280;16320;53.954;9.506;2023-05-20T15:13:49;102075.22;;;15.82;100.00
29315;BME280;16320;53.954;9.506;2023-05-20T15:16:56;102073.38;;;15.84;100.00
29315;BME280;16320;53.954;9.506;2023-05-20T15:20:10;102078.97;;;15.78;100.00
29315;BME280;16320;53.954;9.506;2023-05-20T15:23:15;102064.81;;;15.79;100.00
29315;BME280;16320;53.954;9.506;2023-05-20T15:26:22;102060.56;;;15.75;100.00
29315;BME280;16320;53.954;9.506;2023-05-20T15:29:32;102062.44;;;15.73;100.00
29315;BME280;16320;53.954;9.506;2023-05-20T15:32:37;102076.59;;;15.72;100.00
29315;BME280;16320;53.954;9.506;2023-05-20T15:35:46;102060.63;;;15.73;100.00
29315;BME280;16320;53.954;9.506;2023-05-20T15:42:32;102060.78;;;15.70;100.00
29315;BME280;16320;53.954;9.506;2023-05-20T15:45:36;102056.34;;;15.71;100.00
29315;BME280;16320;53.954;9.506;2023-05-20T15:48:40;102068.03;;;15.67;100.00
29315;BME280;16320;53.954;9.506;2023-05-20T15:51:44;102067.66;;;15.57;100.00
29315;BME280;16320;53.954;9.506;2023-05-20T15:55:02;102055.19;;;15.59;100.00
29315;BME280;16320;53.954;9.506;2023-05-20T15:58:07;102043.75;;;15.59;100.00
29315;BME280;16320;53.954;9.506;2023-05-20T16:01:11;102050.75;;;15.60;100.00
29315;BME280;16320;53.954;9.506;2023-05-20T16:04:15;102048.28;;;15.56;100.00
29315;BME280;16320;53.954;9.506;2023-05-20T16:07:20;102036.28;;;15.49;100.00
29315;BME280;16320;53.954;9.506;2023-05-20T16:10:25;102034.59;;;15.48;100.00
29315;BME280;16320;53.954;9.506;2023-05-20T16:13:35;102031.94;;;15.48;100.00
29315;BME280;16320;53.954;9.506;2023-05-20T16:16:39;102029.44;;;15.45;100.00
29315;BME280;16320;53.954;9.506;2023-05-20T16:19:44;102032.09;;;15.45;100.00
29315;BME280;16320;53.954;9.506;2023-05-20T16:22:49;102026.78;;;15.45;100.00
29315;BME280;16320;53.954;9.506;2023-05-20T16:25:53;102035.81;;;15.41;100.00
29315;BME280;16320;53.954;9.506;2023-05-20T16:28:58;102043.59;;;15.44;100.00
29315;BME280;16320;53.954;9.506;2023-05-20T16:32:02;102047.34;;;15.40;100.00
29315;BME280;16320;53.954;9.506;2023-05-20T16:35:07;102038.31;;;15.44;100.00
29315;BME280;16320;53.954;9.506;2023-05-20T16:38:22;102033.47;;;15.35;100.00
29315;BME280;16320;53.954;9.506;2023-05-20T16:42:00;102041.56;;;15.32;100.00
29315;BME280;16320;53.954;9.506;2023-05-20T16:45:20;102040.81;;;15.30;100.00
29315;BME280;16320;53.954;9.506;2023-05-20T16:48:29;102031.94;;;15.31;100.00
29315;BME280;16320;53.954;9.506;2023-05-20T16:51:36;102032.84;;;15.30;100.00
29315;BME280;16320;53.954;9.506;2023-05-20T16:54:48;102026.03;;;15.26;100.00
29315;BME280;16320;53.954;9.506;2023-05-20T16:57:55;102023.13;;;15.30;100.00
29315;BME280;16320;53.954;9.506;2023-05-20T17:01:00;102032.25;;;15.25;100.00
29315;BME280;16320;53.954;9.506;2023-05-20T17:04:07;102028.09;;;15.19;100.00
29315;BME280;16320;53.954;9.506;2023-05-20T17:07:14;102028.03;;;15.20;100.00
29315;BME280;16320;53.954;9.506;2023-05-20T17:10:26;102023.84;;;15.16;100.00
29315;BME280;16320;53.954;9.506;2023-05-20T17:13:37;102017.44;;;15.20;100.00
29315;BME280;16320;53.954;9.506;2023-05-20T17:16:50;102030.28;;;15.11;100.00
29315;BME280;16320;53.954;9.506;2023-05-20T17:20:01;102031.16;;;15.11;100.00
29315;BME280;16320;53.954;9.506;2023-05-20T17:23:34;102025.84;;;15.11;100.00
29315;BME280;16320;53.954;9.506;2023-05-20T17:26:42;102026.94;;;15.07;100.00
29315;BME280;16320;53.954;9.506;2023-05-20T17:29:52;102017.31;;;15.06;100.00
29315;BME280;16320;53.954;9.506;2023-05-20T17:32:58;102025.38;;;15.03;100.00
29315;BME280;16320;53.954;9.506;2023-05-20T17:40:33;102019.91;;;14.89;100.00
29315;BME280;16320;53.954;9.506;2023-05-20T17:44:28;102022.41;;;14.92;100.00
29315;BME280;16320;53.954;9.506;2023-05-20T17:47:42;102012.59;;;14.94;100.00
29315;BME280;16320;53.954;9.506;2023-05-20T17:51:05;102009.03;;;14.95;100.00
29315;BME280;16320;53.954;9.506;2023-05-20T17:54:17;102009.34;;;14.89;100.00
29315;BME280;16320;53.954;9.506;2023-05-20T17:57:35;102016.66;;;14.83;100.00
29315;BME280;16320;53.954;9.506;2023-05-20T18:01:06;102030.31;;;14.74;100.00
29315;BME280;16320;53.954;9.506;2023-05-20T18:04:40;102023.00;;;14.79;100.00
29315;BME280;16320;53.954;9.506;2023-05-20T18:08:06;102027.66;;;14.74;100.00
29315;BME280;16320;53.954;9.506;2023-05-20T18:11:29;102024.09;;;14.75;100.00
29315;BME280;16320;53.954;9.506;2023-05-20T18:14:36;102023.28;;;14.73;100.00
29315;BME280;16320;53.954;9.506;2023-05-20T18:17:48;102026.25;;;14.67;100.00
29315;BME280;16320;53.954;9.506;2023-05-20T18:21:13;102022.97;;;14.62;100.00
29315;BME280;16320;53.954;9.506;2023-05-20T18:24:35;102009.81;;;14.60;100.00
29315;BME280;16320;53.954;9.506;2023-05-20T18:28:16;102025.81;;;14.57;100.00
29315;BME280;16320;53.954;9.506;2023-05-20T18:31:32;102027.22;;;14.45;100.00
29315;BME280;16320;53.954;9.506;2023-05-20T18:34:52;102031.75;;;14.43;100.00
29315;BME280;16320;53.954;9.506;2023-05-20T18:43:11;102029.38;;;14.37;100.00
29315;BME280;16320;53.954;9.506;2023-05-20T18:46:57;102038.69;;;14.27;100.00
29315;BME280;16320;53.954;9.506;2023-05-20T18:50:31;102033.03;;;14.16;100.00
29315;BME280;16320;53.954;9.506;2023-05-20T18:54:30;102035.81;;;14.13;100.00
29315;BME280;16320;53.954;9.506;2023-05-20T18:57:42;102034.22;;;14.08;100.00
29315;BME280;16320;53.954;9.506;2023-05-20T19:01:45;102040.78;;;14.00;100.00
29315;BME280;16320;53.954;9.506;2023-05-20T19:05:10;102028.06;;;13.89;100.00
29315;BME280;16320;53.954;9.506;2023-05-20T19:09:26;102035.19;;;13.87;100.00
29315;BME280;16320;53.954;9.506;2023-05-20T19:16:51;102029.16;;;13.64;100.00
29315;BME280;16320;53.954;9.506;2023-05-20T19:25:14;102038.78;;;13.45;100.00
29315;BME280;16320;53.954;9.506;2023-05-20T20:01:30;102080.78;;;12.62;100.00
29315;BME280;16320;53.954;9.506;2023-05-20T20:43:29;102101.69;;;11.96;100.00
29315;BME280;16320;53.954;9.506;2023-05-20T20:46:42;102101.53;;;12.01;100.00
29315;BME280;16320;53.954;9.506;2023-05-20T20:49:57;102102.31;;;12.03;100.00
29315;BME280;16320;53.954;9.506;2023-05-20T20:53:13;102102.31;;;12.03;100.00
29315;BME280;16320;53.954;9.506;2023-05-20T20:56:24;102102.22;;;12.06;100.00
29315;BME280;16320;53.954;9.506;2023-05-20T21:00:00;102102.06;;;12.11;100.00
29315;BME280;16320;53.954;9.506;2023-05-20T21:03:22;102098.44;;;12.13;100.00
29315;BME280;16320;53.954;9.506;2023-05-20T21:06:37;102101.13;;;12.12;100.00
29315;BME280;16320;53.954;9.506;2023-05-20T21:09:43;102100.38;;;12.08;100.00
29315;BME280;16320;53.954;9.506;2023-05-20T21:13:02;102096.78;;;12.11;100.00
29315;BME280;16320;53.954;9.506;2023-05-20T21:16:10;102102.00;;;12.12;100.00
29315;BME280;16320;53.954;9.506;2023-05-20T21:19:16;102094.16;;;12.11;100.00
29315;BME280;16320;53.954;9.506;2023-05-20T21:22:25;102098.53;;;12.10;100.00
29315;BME280;16320;53.954;9.506;2023-05-20T21:25:29;102089.72;;;12.11;100.00
29315;BME280;16320;53.954;9.506;2023-05-20T21:28:37;102087.16;;;12.09;100.00
29315;BME280;16320;53.954;9.506;2023-05-20T21:31:43;102072.19;;;12.10;100.00
29315;BME280;16320;53.954;9.506;2023-05-20T21:34:50;102070.50;;;12.09;100.00
29315;BME280;16320;53.954;9.506;2023-05-20T21:37:56;102052.84;;;12.11;100.00
29315;BME280;16320;53.954;9.506;2023-05-20T21:41:03;102060.75;;;12.11;100.00
29315;BME280;16320;53.954;9.506;2023-05-20T21:44:07;102059.13;;;12.07;100.00
29315;BME280;16320;53.954;9.506;2023-05-20T21:47:12;102065.28;;;12.07;100.00
29315;BME280;16320;53.954;9.506;2023-05-20T21:50:16;102069.88;;;12.02;100.00
29315;BME280;16320;53.954;9.506;2023-05-20T21:53:21;102068.03;;;12.04;100.00
29315;BME280;16320;53.954;9.506;2023-05-20T21:56:26;102065.50;;;12.01;100.00
29315;BME280;16320;53.954;9.506;2023-05-20T21:59:30;102067.09;;;12.05;100.00
29315;BME280;16320;53.954;9.506;2023-05-20T22:02:35;102055.81;;;12.02;100.00
29315;BME280;16320;53.954;9.506;2023-05-20T22:05:39;102059.44;;;11.99;100.00
29315;BME280;16320;53.954;9.506;2023-05-20T22:08:48;102045.50;;;11.96;100.00
29315;BME280;16320;53.954;9.506;2023-05-20T22:11:53;102055.03;;;12.00;100.00
29315;BME280;16320;53.954;9.506;2023-05-20T22:14:57;102054.22;;;11.98;100.00
29315;BME280;16320;53.954;9.506;2023-05-20T22:18:02;102049.97;;;11.94;100.00
29315;BME280;16320;53.954;9.506;2023-05-20T22:21:11;102039.44;;;11.94;100.00
29315;BME280;16320;53.954;9.506;2023-05-20T22:24:16;102032.22;;;11.99;100.00
29315;BME280;16320;53.954;9.506;2023-05-20T22:27:20;102017.47;;;11.95;100.00
29315;BME280;16320;53.954;9.506;2023-05-20T22:30:25;102006.00;;;11.96;100.00
29315;BME280;16320;53.954;9.506;2023-05-20T22:33:29;102011.22;;;11.97;100.00
29315;BME280;16320;53.954;9.506;2023-05-20T22:36:33;102013.84;;;11.97;100.00
29315;BME280;16320;53.954;9.506;2023-05-20T22:39:39;102009.56;;;11.95;100.00
29315;BME280;16320;53.954;9.506;2023-05-20T22:42:43;101994.72;;;11.92;100.00
29315;BME280;16320;53.954;9.506;2023-05-20T22:45:48;101991.94;;;11.97;100.00
29315;BME280;16320;53.954;9.506;2023-05-20T22:48:52;101984.34;;;11.87;100.00
29315;BME280;16320;53.954;9.506;2023-05-20T22:51:57;101985.09;;;11.93;100.00
29315;BME280;16320;53.954;9.506;2023-05-20T22:55:06;101983.28;;;11.93;100.00
29315;BME280;16320;53.954;9.506;2023-05-20T22:58:12;101981.50;;;11.94;100.00
29315;BME280;16320;53.954;9.506;2023-05-20T23:01:17;101978.09;;;11.92;100.00
29315;BME280;16320;53.954;9.506;2023-05-20T23:04:22;101974.75;;;11.86;100.00
29315;BME280;16320;53.954;9.506;2023-05-20T23:07:26;101981.66;;;11.89;100.00
29315;BME280;16320;53.954;9.506;2023-05-20T23:10:33;101976.59;;;11.84;100.00
29315;BME280;16320;53.954;9.506;2023-05-20T23:13:37;101974.75;;;11.86;100.00
29315;BME280;16320;53.954;9.506;2023-05-20T23:16:41;101963.47;;;11.83;100.00
29315;BME280;16320;53.954;9.506;2023-05-20T23:19:47;101955.50;;;11.84;100.00
29315;BME280;16320;53.954;9.506;2023-05-20T23:22:51;101953.78;;;11.83;100.00
29315;BME280;16320;53.954;9.506;2023-05-20T23:25:56;101953.06;;;11.80;100.00
29315;BME280;16320;53.954;9.506;2023-05-20T23:29:00;101949.66;;;11.76;100.00
29315;BME280;16320;53.954;9.506;2023-05-20T23:32:05;101952.44;;;11.73;100.00
29315;BME280;16320;53.954;9.506;2023-05-20T23:35:09;101954.34;;;11.68;100.00
29315;BME280;16320;53.954;9.506;2023-05-20T23:38:16;101947.38;;;11.67;100.00
29315;BME280;16320;53.954;9.506;2023-05-20T23:41:21;101955.16;;;11.70;100.00
29315;BME280;16320;53.954;9.506;2023-05-20T23:44:27;101943.91;;;11.65;100.00
29315;BME280;16320;53.954;9.506;2023-05-20T23:47:31;101944.44;;;11.75;100.00
29315;BME280;16320;53.954;9.506;2023-05-20T23:50:35;101935.44;;;11.57;100.00
29315;BME280;16320;53.954;9.506;2023-05-20T23:53:40;101944.44;;;11.51;100.00
29315;BME280;16320;53.954;9.506;2023-05-20T23:56:46;101930.72;;;11.43;100.00
29315;BME280;16320;53.954;9.506;2023-05-20T23:59:51;101936.13;;;11.38;100.00
